Time;durP1;ratioP1;P1;durP2;ratioP2;P2;SDS_P1;SDS_P2;PMS_P1;PMS_P2;Temp;Humidity;BMP_temperature;BMP_pressure;BME280_temperature;BME280_humidity;BME280_pressure;Samples;Min_cycle;Max_cycle;Signal;HPM_P1;HPM_P2
2022/09/01 00:00:50;;;;;;;2.83;1.50;;;16.00;99.90;;;;;;3059893;19;20010;-72
2022/09/01 00:01:52;;;;;;;1.60;1.50;;;16.00;99.90;;;;;;3061522;19;20082;-72
2022/09/01 00:02:56;;;;;;;2.15;1.55;;;15.90;99.90;;;;;;3060530;19;20026;-72
2022/09/01 00:04:01;;;;;;;2.05;1.42;;;15.80;99.90;;;;;;3060140;19;20013;-73
2022/09/01 00:05:06;;;;;;;3.03;1.40;;;16.00;99.90;;;;;;3060306;19;20028;-72
2022/09/01 00:06:09;;;;;;;1.90;1.40;;;15.90;99.90;;;;;;3059787;19;20375;-72
2022/09/01 00:07:14;;;;;;;2.22;1.30;;;15.80;99.90;;;;;;3060206;19;20011;-73
2022/09/01 00:08:16;;;;;;;2.78;1.38;;;15.80;99.90;;;;;;3059494;19;20026;-72
2022/09/01 00:09:22;;;;;;;4.18;1.40;;;15.80;99.90;;;;;;3060228;19;20014;-72
2022/09/01 00:10:24;;;;;;;2.72;1.40;;;15.80;99.90;;;;;;3059796;19;20014;-72
2022/09/01 00:11:29;;;;;;;2.08;1.48;;;15.90;99.90;;;;;;3059969;19;20414;-73
2022/09/01 00:12:30;;;;;;;2.80;1.50;;;15.90;99.90;;;;;;3060093;19;20014;-73
2022/09/01 00:13:34;;;;;;;2.22;1.40;;;15.70;99.90;;;;;;3059660;19;20035;-72
2022/09/01 00:14:39;;;;;;;2.60;1.55;;;15.90;99.90;;;;;;3060455;19;20014;-73
2022/09/01 00:15:44;;;;;;;3.22;1.50;;;15.70;99.90;;;;;;3060883;19;20021;-72
2022/09/01 00:16:46;;;;;;;2.03;1.50;;;15.60;99.90;;;;;;3061296;19;20014;-73
2022/09/01 00:17:50;;;;;;;2.88;1.40;;;15.70;99.90;;;;;;3059796;19;20031;-73
2022/09/01 00:18:53;;;;;;;1.67;1.30;;;15.80;99.90;;;;;;3061165;19;20035;-73
2022/09/01 00:19:57;;;;;;;2.13;1.50;;;15.70;99.90;;;;;;3060129;19;20420;-73
2022/09/01 00:20:59;;;;;;;1.75;1.30;;;15.70;99.90;;;;;;3059676;19;20022;-73
2022/09/01 00:22:03;;;;;;;2.05;1.20;;;15.60;99.90;;;;;;3059993;19;20018;-73
2022/09/01 00:23:05;;;;;;;3.63;1.40;;;15.70;99.90;;;;;;3059751;19;20033;-73
2022/09/01 00:24:10;;;;;;;1.70;1.48;;;15.70;99.90;;;;;;3059875;19;20028;-73
2022/09/01 00:25:11;;;;;;;2.03;1.50;;;15.70;99.90;;;;;;3059771;19;20014;-73
2022/09/01 00:26:15;;;;;;;2.05;1.40;;;15.60;99.90;;;;;;3060162;19;20017;-73
2022/09/01 00:27:17;;;;;;;2.85;1.50;;;15.60;99.90;;;;;;3059526;19;20002;-73
2022/09/01 00:28:21;;;;;;;2.33;1.40;;;15.70;99.90;;;;;;3059226;19;20426;-73
2022/09/01 00:29:23;;;;;;;2.88;1.40;;;15.60;99.90;;;;;;3059268;19;20346;-73
2022/09/01 00:30:29;;;;;;;1.67;1.25;;;15.60;99.90;;;;;;3060021;19;20009;-73
2022/09/01 00:31:31;;;;;;;2.17;1.50;;;15.70;99.90;;;;;;3060174;19;20021;-73
2022/09/01 00:32:35;;;;;;;2.58;1.52;;;15.70;99.90;;;;;;3060629;19;20022;-74
2022/09/01 00:33:37;;;;;;;2.47;1.30;;;15.50;99.90;;;;;;3060662;19;20026;-73
2022/09/01 00:34:42;;;;;;;1.45;1.20;;;15.60;99.90;;;;;;3060693;19;20430;-73
2022/09/01 00:35:43;;;;;;;2.72;1.50;;;15.50;99.90;;;;;;3060664;19;20018;-73
2022/09/01 00:36:47;;;;;;;2.08;1.67;;;15.50;99.90;;;;;;3060158;19;20435;-73
2022/09/01 00:37:48;;;;;;;4.18;1.50;;;15.60;99.90;;;;;;3059593;19;20010;-73
2022/09/01 00:38:53;;;;;;;1.70;1.38;;;15.50;99.90;;;;;;3059625;19;20015;-72
2022/09/01 00:39:54;;;;;;;1.73;1.17;;;15.40;99.90;;;;;;3056905;19;20022;-73
2022/09/01 00:40:59;;;;;;;1.92;1.27;;;15.40;99.90;;;;;;3059874;19;20082;-73
2022/09/01 00:42:00;;;;;;;1.75;1.30;;;15.50;99.90;;;;;;3059201;19;20378;-72
2022/09/01 00:43:13;;;;;;;1.90;1.30;;;15.40;99.90;;;;;;3060379;19;20387;-73
2022/09/01 00:44:17;;;;;;;2.78;1.35;;;15.50;99.90;;;;;;3059292;19;20022;-73
2022/09/01 00:45:22;;;;;;;1.92;1.38;;;15.30;99.90;;;;;;3060828;19;20104;-73
2022/09/01 00:46:28;;;;;;;1.70;1.30;;;15.10;99.90;;;;;;3058892;19;20022;-73
2022/09/01 00:47:34;;;;;;;2.28;1.40;;;15.40;99.90;;;;;;3059766;19;20018;-73
2022/09/01 00:48:36;;;;;;;1.90;1.40;;;15.30;99.90;;;;;;3058500;19;20019;-73
2022/09/01 00:49:43;;;;;;;2.55;1.50;;;15.30;99.90;;;;;;3058804;19;20472;-73
2022/09/01 00:50:45;;;;;;;3.05;1.30;;;15.40;99.90;;;;;;3059654;19;20015;-73
2022/09/01 00:51:52;;;;;;;2.50;1.50;;;15.40;99.90;;;;;;3059439;19;20640;-73
2022/09/01 00:52:54;;;;;;;2.08;1.40;;;15.20;99.90;;;;;;3059062;19;20017;-73
2022/09/01 00:54:00;;;;;;;2.65;1.48;;;15.40;99.90;;;;;;3059376;19;20014;-72
2022/09/01 00:55:07;;;;;;;3.15;1.40;;;15.30;99.90;;;;;;3059991;19;20342;-73
2022/09/01 00:56:11;;;;;;;4.20;1.58;;;15.20;99.90;;;;;;3060720;19;20006;-72
2022/09/01 00:57:14;;;;;;;3.67;1.48;;;15.40;99.90;;;;;;3060219;19;20026;-72
2022/09/01 00:58:18;;;;;;;2.85;1.40;;;15.30;99.90;;;;;;3058895;19;20505;-73
2022/09/01 00:59:21;;;;;;;2.20;1.42;;;15.60;99.90;;;;;;3059374;19;20011;-72
2022/09/01 01:00:28;;;;;;;2.30;1.23;;;15.10;99.90;;;;;;3059608;19;20085;-72
2022/09/01 01:01:33;;;;;;;2.90;1.75;;;15.20;99.90;;;;;;3059467;19;20039;-73
2022/09/01 01:02:37;;;;;;;2.60;1.52;;;15.20;99.90;;;;;;3060210;19;20488;-72
2022/09/01 01:03:45;;;;;;;1.83;1.50;;;15.20;99.90;;;;;;3059283;19;20484;-72
2022/09/01 01:04:51;;;;;;;2.95;1.65;;;15.30;99.90;;;;;;3059304;19;20028;-72
2022/09/01 01:05:56;;;;;;;3.72;1.58;;;15.30;99.90;;;;;;3059338;19;20003;-72
2022/09/01 01:07:02;;;;;;;2.50;1.58;;;15.20;99.90;;;;;;3058552;19;20086;-72
2022/09/01 01:08:04;;;;;;;2.65;1.52;;;15.10;99.90;;;;;;3058943;19;20479;-72
2022/09/01 01:09:08;;;;;;;2.10;1.65;;;15.40;99.90;;;;;;3058918;19;20334;-73
2022/09/01 01:10:11;;;;;;;2.50;1.70;;;15.20;99.90;;;;;;3059951;19;20010;-73
2022/09/01 01:11:16;;;;;;;2.00;1.55;;;15.20;99.90;;;;;;3058579;19;20014;-73
2022/09/01 01:12:18;;;;;;;1.63;1.30;;;15.30;99.90;;;;;;3059177;19;20359;-73
2022/09/01 01:13:24;;;;;;;2.55;1.63;;;15.10;99.90;;;;;;3060422;19;20039;-73
2022/09/01 01:14:30;;;;;;;3.22;1.70;;;15.10;99.90;;;;;;3059761;19;20011;-73
2022/09/01 01:15:35;;;;;;;2.03;1.42;;;15.10;99.90;;;;;;3058733;19;20018;-73
2022/09/01 01:16:43;;;;;;;1.80;1.50;;;15.00;99.90;;;;;;3060222;19;20021;-73
2022/09/01 01:17:47;;;;;;;3.42;1.48;;;15.00;99.90;;;;;;3059176;19;20015;-73
2022/09/01 01:18:49;;;;;;;2.17;1.50;;;15.00;99.90;;;;;;3060681;19;20015;-73
2022/09/01 01:24:06;;;;;;;2.33;1.55;;;15.00;99.90;;;;;;3058703;19;20010;-73
2022/09/01 01:25:11;;;;;;;2.70;1.40;;;14.90;99.90;;;;;;3060119;19;20018;-73
2022/09/01 01:26:15;;;;;;;4.47;1.52;;;14.90;99.90;;;;;;3058459;19;20021;-73
2022/09/01 01:27:20;;;;;;;2.65;1.40;;;15.10;99.90;;;;;;3058990;19;20006;-73
2022/09/01 01:28:30;;;;;;;2.17;1.42;;;14.90;99.90;;;;;;3059042;19;20014;-73
2022/09/01 01:29:33;;;;;;;3.33;1.60;;;14.90;99.90;;;;;;3058702;19;20023;-73
2022/09/01 01:30:39;;;;;;;1.92;1.38;;;15.00;99.90;;;;;;3058888;19;20021;-73
2022/09/01 01:31:40;;;;;;;3.10;1.67;;;14.20;99.90;;;;;;3059994;19;20010;-73
2022/09/01 01:32:46;;;;;;;2.40;1.60;;;14.90;99.90;;;;;;3058944;19;20837;-73
2022/09/01 01:33:52;;;;;;;2.97;1.60;;;14.90;99.90;;;;;;3058829;19;20015;-73
2022/09/01 01:34:55;;;;;;;1.95;1.48;;;14.80;99.90;;;;;;3059217;19;20496;-73
2022/09/01 01:36:00;;;;;;;2.17;1.50;;;14.70;99.90;;;;;;3058721;19;20336;-72
2022/09/01 01:37:01;;;;;;;3.45;1.50;;;15.60;99.90;;;;;;3059162;19;20082;-73
2022/09/01 01:38:06;;;;;;;2.60;1.42;;;14.80;99.90;;;;;;3058727;19;20028;-73
2022/09/01 01:39:10;;;;;;;1.90;1.38;;;14.70;99.90;;;;;;3058973;19;20379;-73
2022/09/01 01:40:19;;;;;;;2.38;1.52;;;14.90;99.90;;;;;;3058830;19;20015;-73
2022/09/01 01:41:20;;;;;;;2.13;1.60;;;14.70;99.90;;;;;;3058582;19;20015;-73
2022/09/01 01:42:25;;;;;;;3.72;1.70;;;14.70;99.90;;;;;;3059408;19;20487;-74
2022/09/01 01:43:27;;;;;;;1.90;1.33;;;14.90;99.90;;;;;;3058574;19;20044;-73
2022/09/01 01:44:32;;;;;;;2.53;1.40;;;14.80;99.90;;;;;;3059149;19;20028;-73
2022/09/01 01:45:34;;;;;;;2.00;1.50;;;14.80;99.90;;;;;;3058833;19;20039;-73
2022/09/01 01:46:41;;;;;;;2.25;1.67;;;14.60;99.90;;;;;;3058790;19;20007;-73
2022/09/01 01:47:51;;;;;;;1.70;1.40;;;14.90;99.90;;;;;;3059105;19;20018;-73
2022/09/01 01:48:55;;;;;;;1.85;1.50;;;14.50;99.90;;;;;;3057401;19;20010;-73
2022/09/01 01:49:57;;;;;;;2.47;1.50;;;14.90;99.90;;;;;;3058189;19;20020;-72
2022/09/01 01:51:03;;;;;;;1.80;1.45;;;14.80;99.90;;;;;;3058251;19;20018;-73
2022/09/01 01:52:04;;;;;;;3.70;1.58;;;14.90;99.90;;;;;;3055862;19;20014;-74
2022/09/01 01:53:12;;;;;;;1.98;1.50;;;14.70;99.90;;;;;;3058153;19;20078;-73
2022/09/01 01:54:14;;;;;;;3.42;1.60;;;14.80;99.90;;;;;;3058560;19;19995;-72
2022/09/01 01:55:23;;;;;;;3.13;1.50;;;14.90;99.90;;;;;;3058810;19;20488;-73
2022/09/01 01:56:25;;;;;;;1.92;1.60;;;14.70;99.90;;;;;;3059717;19;20026;-73
2022/09/01 01:57:31;;;;;;;3.08;1.80;;;14.90;99.90;;;;;;3059235;19;20029;-73
2022/09/01 01:58:33;;;;;;;3.33;1.67;;;14.60;99.90;;;;;;3058537;19;20031;-74
2022/09/01 01:59:39;;;;;;;2.30;1.70;;;14.60;99.90;;;;;;3058098;19;20061;-73
2022/09/01 02:00:46;;;;;;;2.17;1.73;;;14.70;99.90;;;;;;3058601;19;20002;-74
2022/09/01 02:01:50;;;;;;;3.10;1.70;;;14.80;99.90;;;;;;3059425;19;20022;-73
2022/09/01 02:02:52;;;;;;;4.43;1.58;;;14.60;99.90;;;;;;3059654;19;20476;-73
2022/09/01 02:03:57;;;;;;;3.35;1.60;;;14.90;99.90;;;;;;3059129;19;20014;-73
2022/09/01 02:04:58;;;;;;;2.97;1.70;;;14.80;99.90;;;;;;3059314;19;20019;-73
2022/09/01 02:06:06;;;;;;;3.08;1.60;;;14.80;99.90;;;;;;3057768;19;20357;-73
2022/09/01 02:07:12;;;;;;;4.28;1.77;;;14.60;99.90;;;;;;3058250;19;20022;-73
2022/09/01 02:08:20;;;;;;;3.90;1.70;;;14.70;99.90;;;;;;3058240;19;20029;-73
2022/09/01 02:09:22;;;;;;;3.53;1.60;;;14.70;99.90;;;;;;3058114;19;20472;-73
2022/09/01 02:10:32;;;;;;;2.20;1.80;;;14.60;99.90;;;;;;3058146;19;20010;-73
2022/09/01 02:11:36;;;;;;;2.30;1.60;;;14.60;99.90;;;;;;3058108;19;20015;-73
2022/09/01 02:12:40;;;;;;;3.65;1.60;;;14.40;99.90;;;;;;3057910;19;20077;-73
2022/09/01 02:13:41;;;;;;;2.90;1.67;;;14.60;99.90;;;;;;3057735;19;20011;-73
2022/09/01 02:14:45;;;;;;;2.33;1.80;;;14.80;99.90;;;;;;3058892;19;20027;-73
2022/09/01 02:15:49;;;;;;;2.00;1.45;;;14.50;99.90;;;;;;3058967;19;20480;-73
2022/09/01 02:16:54;;;;;;;2.95;1.70;;;14.60;99.90;;;;;;3059605;19;20010;-73
2022/09/01 02:17:59;;;;;;;3.00;1.70;;;14.60;99.90;;;;;;3058773;19;20018;-73
2022/09/01 02:19:05;;;;;;;2.28;1.75;;;14.50;99.90;;;;;;3057195;19;20040;-73
2022/09/01 02:20:07;;;;;;;3.90;1.70;;;14.60;99.90;;;;;;3056916;19;20020;-73
2022/09/01 02:21:18;;;;;;;2.30;1.75;;;14.60;99.90;;;;;;3058196;19;20015;-74
2022/09/01 02:22:20;;;;;;;5.25;1.70;;;14.60;99.90;;;;;;3057971;19;20592;-73
2022/09/01 02:23:24;;;;;;;2.20;1.60;;;15.40;99.90;;;;;;3058426;19;20010;-75
2022/09/01 02:24:30;;;;;;;2.60;2.03;;;14.70;99.90;;;;;;3057866;19;20015;-73
2022/09/01 02:25:37;;;;;;;3.65;2.05;;;14.60;99.90;;;;;;3058785;19;20077;-73
2022/09/01 02:26:41;;;;;;;2.78;1.58;;;14.50;99.90;;;;;;3057881;19;20018;-73
2022/09/01 02:27:48;;;;;;;2.47;1.67;;;14.60;99.90;;;;;;3058305;19;20014;-73
2022/09/01 02:28:49;;;;;;;2.33;1.67;;;14.60;99.90;;;;;;3057364;19;20015;-73
2022/09/01 02:29:54;;;;;;;2.67;1.90;;;15.00;99.90;;;;;;3059064;19;20023;-73
2022/09/01 02:30:56;;;;;;;2.22;1.67;;;14.40;99.90;;;;;;3058143;19;20010;-73
2022/09/01 02:32:00;;;;;;;3.67;1.70;;;14.40;99.90;;;;;;3059361;19;20095;-73
2022/09/01 02:33:03;;;;;;;2.63;1.77;;;14.40;99.90;;;;;;3057367;19;20050;-73
2022/09/01 02:34:12;;;;;;;3.45;1.80;;;14.40;99.90;;;;;;3058173;19;20024;-73
2022/09/01 02:35:15;;;;;;;4.75;2.00;;;14.30;99.90;;;;;;3058768;19;20014;-73
2022/09/01 02:36:20;;;;;;;2.65;1.88;;;14.60;99.90;;;;;;3057643;19;20480;-73
2022/09/01 02:37:24;;;;;;;2.63;1.95;;;14.50;99.90;;;;;;3059120;19;20011;-73
2022/09/01 02:38:30;;;;;;;3.13;1.88;;;14.30;99.90;;;;;;3057936;19;20074;-73
2022/09/01 02:39:32;;;;;;;3.50;1.73;;;14.50;99.90;;;;;;3057903;19;20006;-73
2022/09/01 02:40:39;;;;;;;2.33;1.92;;;14.30;99.90;;;;;;3057756;19;20524;-74
2022/09/01 02:41:40;;;;;;;3.38;1.90;;;14.60;99.90;;;;;;3057950;19;20031;-73
2022/09/01 02:42:46;;;;;;;2.08;1.88;;;14.50;99.90;;;;;;3057935;19;20022;-74
2022/09/01 02:43:48;;;;;;;3.85;1.90;;;14.60;99.90;;;;;;3058066;19;20014;-73
2022/09/01 02:44:52;;;;;;;2.83;1.80;;;14.30;99.90;;;;;;3058595;19;20014;-73
2022/09/01 02:45:56;;;;;;;2.88;1.92;;;14.50;99.90;;;;;;3058781;19;20362;-73
2022/09/01 02:47:00;;;;;;;2.67;1.92;;;14.40;99.90;;;;;;3058510;19;20014;-73
2022/09/01 02:48:06;;;;;;;3.75;1.95;;;14.50;99.90;;;;;;3057933;19;20014;-73
2022/09/01 02:49:14;;;;;;;3.22;1.90;;;14.30;99.90;;;;;;3057246;19;20081;-73
2022/09/01 02:50:17;;;;;;;2.67;2.00;;;14.40;99.90;;;;;;3057509;19;20006;-73
2022/09/01 02:51:24;;;;;;;2.45;1.83;;;14.70;99.90;;;;;;3057841;19;20019;-74
2022/09/01 02:52:25;;;;;;;2.35;1.88;;;14.20;99.90;;;;;;3057747;19;20014;-73
2022/09/01 02:53:29;;;;;;;2.67;1.83;;;14.20;99.90;;;;;;3057762;19;20018;-73
2022/09/01 02:54:31;;;;;;;4.10;2.00;;;14.50;99.90;;;;;;3058065;19;20513;-73
2022/09/01 02:55:38;;;;;;;2.20;1.75;;;14.20;99.90;;;;;;3058084;19;20022;-73
2022/09/01 02:56:39;;;;;;;2.47;1.83;;;14.40;99.90;;;;;;3057856;19;20015;-73
2022/09/01 02:57:47;;;;;;;2.25;1.95;;;14.30;99.90;;;;;;3058411;19;20022;-73
2022/09/01 02:58:49;;;;;;;4.15;2.10;;;14.50;99.90;;;;;;3057876;19;20014;-73
2022/09/01 02:59:57;;;;;;;2.28;1.80;;;14.10;99.90;;;;;;3058759;19;20010;-73
2022/09/01 03:00:58;;;;;;;3.67;1.80;;;14.30;99.90;;;;;;3057633;19;20015;-73
2022/09/01 03:02:03;;;;;;;2.88;1.90;;;14.30;99.90;;;;;;3057941;19;20041;-73
2022/09/01 03:03:06;;;;;;;3.13;2.00;;;14.30;99.90;;;;;;3060487;19;20015;-73
2022/09/01 03:04:12;;;;;;;3.38;1.85;;;14.40;99.90;;;;;;3060734;19;20019;-74
2022/09/01 03:05:15;;;;;;;3.60;1.73;;;14.70;99.90;;;;;;3061060;19;20375;-73
2022/09/01 03:06:25;;;;;;;2.40;2.00;;;14.30;99.90;;;;;;3060428;19;20022;-73
2022/09/01 03:07:28;;;;;;;2.55;1.85;;;14.20;99.90;;;;;;3061046;19;20012;-73
2022/09/01 03:08:35;;;;;;;2.63;1.98;;;14.10;99.90;;;;;;3060870;19;20010;-74
2022/09/01 03:09:41;;;;;;;2.40;1.77;;;14.20;99.90;;;;;;3061189;19;20006;-73
2022/09/01 03:10:46;;;;;;;3.50;1.90;;;14.20;99.90;;;;;;3061048;19;20472;-73
2022/09/01 03:11:52;;;;;;;2.85;1.80;;;14.80;99.90;;;;;;3061792;19;20022;-73
2022/09/01 03:12:53;;;;;;;3.15;2.00;;;14.10;99.90;;;;;;3061250;19;20121;-72
2022/09/01 03:13:58;;;;;;;3.75;2.00;;;14.20;99.90;;;;;;3060911;19;20036;-73
2022/09/01 03:14:59;;;;;;;3.53;2.00;;;14.20;99.90;;;;;;3061279;19;20085;-73
2022/09/01 03:16:03;;;;;;;2.50;1.83;;;14.20;99.90;;;;;;3060632;19;20014;-73
2022/09/01 03:17:05;;;;;;;3.45;2.00;;;14.20;99.90;;;;;;3060735;19;20010;-73
2022/09/01 03:18:11;;;;;;;2.92;2.17;;;14.20;99.90;;;;;;3060527;19;20018;-73
2022/09/01 03:19:13;;;;;;;2.72;1.88;;;14.20;99.90;;;;;;3060602;19;20040;-73
2022/09/01 03:20:20;;;;;;;2.95;2.10;;;14.00;99.90;;;;;;3059890;19;20018;-73
2022/09/01 03:21:22;;;;;;;2.40;1.90;;;14.10;99.90;;;;;;3061219;19;20018;-73
2022/09/01 03:22:28;;;;;;;;;;;14.20;99.90;;;;;;3061418;19;20006;-73
2022/09/01 03:23:32;;;;;;;2.22;1.92;;;14.10;99.90;;;;;;3061043;19;19919;-73
2022/09/01 03:24:37;;;;;;;3.60;1.90;;;14.10;99.90;;;;;;3061293;19;20019;-73
2022/09/01 03:25:39;;;;;;;2.75;2.03;;;14.10;99.90;;;;;;3060841;19;20074;-72
2022/09/01 03:26:48;;;;;;;3.80;1.83;;;14.20;99.90;;;;;;3060449;19;20086;-73
2022/09/01 03:27:50;;;;;;;2.05;1.80;;;14.10;99.90;;;;;;3060846;19;20501;-73
2022/09/01 03:28:54;;;;;;;4.40;2.30;;;14.20;99.90;;;;;;3060933;19;20368;-73
2022/09/01 03:29:55;;;;;;;2.38;1.95;;;14.00;99.90;;;;;;3060687;19;20472;-73
2022/09/01 03:31:00;;;;;;;3.25;1.90;;;14.10;99.90;;;;;;3060478;19;20014;-73
2022/09/01 03:32:05;;;;;;;2.65;2.05;;;14.20;99.90;;;;;;3060832;19;20039;-72
2022/09/01 03:33:06;;;;;;;3.65;1.95;;;14.10;99.90;;;;;;3060136;19;20022;-73
2022/09/01 03:34:12;;;;;;;3.03;2.22;;;15.40;99.90;;;;;;3060337;19;20014;-73
2022/09/01 03:35:16;;;;;;;4.60;2.28;;;14.00;99.90;;;;;;3060213;19;20022;-73
2022/09/01 03:36:20;;;;;;;3.75;2.25;;;14.20;99.90;;;;;;3060482;19;20460;-72
2022/09/01 03:37:24;;;;;;;2.67;2.10;;;14.10;99.90;;;;;;3060294;19;20039;-73
2022/09/01 03:38:25;;;;;;;2.92;2.00;;;14.20;99.90;;;;;;3061776;19;20021;-73
2022/09/01 03:39:30;;;;;;;3.95;1.70;;;14.40;99.90;;;;;;3060340;19;20019;-72
2022/09/01 03:40:33;;;;;;;2.40;2.00;;;14.10;99.90;;;;;;3060370;19;20341;-73
2022/09/01 03:41:38;;;;;;;2.92;1.83;;;14.00;99.90;;;;;;3060077;19;20023;-73
2022/09/01 03:42:42;;;;;;;3.25;2.22;;;14.30;99.90;;;;;;3060294;19;20495;-73
2022/09/01 03:43:47;;;;;;;3.67;1.98;;;14.90;99.90;;;;;;3059366;19;20329;-73
2022/09/01 03:44:50;;;;;;;2.83;2.00;;;14.10;99.90;;;;;;3059644;19;20014;-73
2022/09/01 03:45:56;;;;;;;4.22;2.03;;;14.20;99.90;;;;;;3061021;19;20050;-73
2022/09/01 03:47:00;;;;;;;2.30;1.70;;;14.30;99.90;;;;;;3060151;19;20027;-73
2022/09/01 03:48:07;;;;;;;3.38;1.90;;;14.20;99.90;;;;;;3060289;19;20010;-73
2022/09/01 03:49:15;;;;;;;2.60;1.98;;;14.20;99.90;;;;;;3060079;19;20028;-73
2022/09/01 03:50:20;;;;;;;1.80;1.55;;;14.30;99.90;;;;;;3059790;19;20358;-73
2022/09/01 03:51:25;;;;;;;2.55;1.85;;;14.20;99.90;;;;;;3059958;19;20014;-73
2022/09/01 03:52:26;;;;;;;2.15;1.65;;;14.40;99.90;;;;;;3060131;19;20572;-73
2022/09/01 03:53:32;;;;;;;3.65;1.85;;;14.40;99.90;;;;;;3061273;19;20069;-73
2022/09/01 03:54:34;;;;;;;3.25;1.88;;;14.20;99.90;;;;;;3059110;19;20051;-72
2022/09/01 03:55:39;;;;;;;2.85;1.70;;;14.20;99.90;;;;;;3060892;19;20031;-73
2022/09/01 03:56:40;;;;;;;2.72;1.83;;;14.30;99.90;;;;;;3060414;19;20330;-73
2022/09/01 03:57:47;;;;;;;5.10;2.08;;;14.20;99.90;;;;;;3059984;19;20360;-73
2022/09/01 03:58:48;;;;;;;2.25;1.80;;;14.40;99.90;;;;;;3060166;19;20005;-73
2022/09/01 03:59:53;;;;;;;2.20;1.60;;;14.20;99.90;;;;;;3059400;19;20024;-73
2022/09/01 04:00:57;;;;;;;2.28;1.70;;;14.40;99.90;;;;;;3060846;19;20576;-73
2022/09/01 04:02:01;;;;;;;2.28;1.88;;;14.50;99.90;;;;;;3061902;19;20045;-72
2022/09/01 04:03:06;;;;;;;3.22;1.85;;;14.50;99.90;;;;;;3061490;19;20025;-73
2022/09/01 04:04:12;;;;;;;2.42;1.73;;;14.40;99.90;;;;;;3059977;19;20334;-73
2022/09/01 04:05:13;;;;;;;2.42;1.85;;;14.30;99.90;;;;;;3059937;19;20007;-73
2022/09/01 04:06:22;;;;;;;3.05;1.77;;;14.50;99.90;;;;;;3059521;19;20010;-73
2022/09/01 04:07:27;;;;;;;2.38;1.77;;;14.20;99.90;;;;;;3060155;19;20524;-73
2022/09/01 04:08:29;;;;;;;2.85;1.80;;;14.50;99.90;;;;;;3059483;19;20014;-73
2022/09/01 04:09:35;;;;;;;3.58;1.80;;;14.50;99.90;;;;;;3059750;19;20036;-73
2022/09/01 04:10:48;;;;;;;2.88;1.80;;;14.70;99.90;;;;;;3059879;19;20014;-73
2022/09/01 04:11:52;;;;;;;5.25;1.90;;;14.30;99.90;;;;;;3061374;19;20026;-73
2022/09/01 04:12:57;;;;;;;2.83;1.80;;;14.40;99.90;;;;;;3059233;19;20010;-72
2022/09/01 04:14:03;;;;;;;3.13;1.90;;;14.50;99.90;;;;;;3060821;19;20014;-73
2022/09/01 04:15:06;;;;;;;2.50;1.75;;;14.40;99.90;;;;;;3058052;19;20013;-72
2022/09/01 04:18:04;;;;;;;4.47;2.15;;;14.50;99.90;;;;;;3060160;19;20021;-73
2022/09/01 04:18:59;;;;;;;2.42;1.80;;;14.40;99.90;;;;;;3059059;19;20018;-73
2022/09/01 04:20:07;;;;;;;2.58;1.80;;;14.30;99.90;;;;;;3060853;19;20006;-73
2022/09/01 04:21:09;;;;;;;2.38;1.80;;;14.40;99.90;;;;;;3059134;19;20022;-73
2022/09/01 04:22:16;;;;;;;4.00;1.90;;;14.20;99.90;;;;;;3060448;19;20389;-73
2022/09/01 04:23:25;;;;;;;3.08;2.15;;;14.50;99.90;;;;;;3059669;19;20449;-73
2022/09/01 04:24:31;;;;;;;1.92;1.60;;;14.40;99.90;;;;;;3059918;19;20036;-73
2022/09/01 04:25:37;;;;;;;3.83;1.73;;;14.30;99.90;;;;;;3059408;19;20342;-73
2022/09/01 04:26:41;;;;;;;2.60;1.75;;;14.40;99.90;;;;;;3059706;19;20010;-72
2022/09/01 04:27:43;;;;;;;2.70;1.80;;;14.50;99.90;;;;;;3059708;19;20048;-73
2022/09/01 04:28:52;;;;;;;2.50;1.70;;;14.60;99.90;;;;;;3059996;19;20010;-73
2022/09/01 04:29:57;;;;;;;3.85;1.90;;;14.40;99.90;;;;;;3059294;19;20369;-72
2022/09/01 04:30:58;;;;;;;2.17;1.95;;;14.20;99.90;;;;;;3059358;19;20388;-72
2022/09/01 04:32:04;;;;;;;3.25;1.80;;;14.70;99.90;;;;;;3059404;19;20006;-73
2022/09/01 04:33:06;;;;;;;3.30;1.90;;;14.30;99.90;;;;;;3059508;19;20002;-72
2022/09/01 04:34:12;;;;;;;2.85;1.92;;;14.50;99.90;;;;;;3059553;19;20375;-73
2022/09/01 04:35:15;;;;;;;5.07;1.70;;;14.50;99.90;;;;;;3060209;19;20018;-72
2022/09/01 04:36:22;;;;;;;2.30;1.70;;;14.30;99.90;;;;;;3058160;19;20010;-73
2022/09/01 04:37:23;;;;;;;2.83;1.70;;;14.40;99.90;;;;;;3060949;19;20479;-73
2022/09/01 04:38:28;;;;;;;2.58;1.75;;;14.30;99.90;;;;;;3059679;19;20014;-73
2022/09/01 04:39:29;;;;;;;2.67;1.80;;;14.40;99.90;;;;;;3059304;19;20382;-73
2022/09/01 04:40:35;;;;;;;3.28;1.80;;;14.50;99.90;;;;;;3059170;19;20343;-73
2022/09/01 04:41:38;;;;;;;4.78;2.00;;;14.50;99.90;;;;;;3060385;19;20130;-73
2022/09/01 04:42:43;;;;;;;3.17;1.85;;;14.50;99.90;;;;;;3060412;19;20064;-73
2022/09/01 04:43:50;;;;;;;4.18;2.00;;;14.50;99.90;;;;;;3058295;19;20595;-73
2022/09/01 04:44:56;;;;;;;2.85;1.65;;;14.50;99.90;;;;;;3060319;19;20499;-73
2022/09/01 04:45:57;;;;;;;3.28;1.90;;;14.30;99.90;;;;;;3058978;19;20021;-73
2022/09/01 04:47:02;;;;;;;2.90;1.80;;;14.90;99.90;;;;;;3060619;19;21244;-72
2022/09/01 04:48:04;;;;;;;3.00;2.03;;;14.30;99.90;;;;;;3059362;19;20017;-73
2022/09/01 04:49:09;;;;;;;3.53;1.83;;;14.40;99.90;;;;;;3059373;19;20035;-73
2022/09/01 04:50:13;;;;;;;2.13;1.80;;;14.10;99.90;;;;;;3057919;19;20542;-73
2022/09/01 04:51:19;;;;;;;3.00;2.00;;;14.20;99.90;;;;;;3059541;19;20009;-73
2022/09/01 04:52:20;;;;;;;2.58;1.90;;;14.30;99.90;;;;;;3059190;19;20010;-73
2022/09/01 04:53:25;;;;;;;3.03;1.88;;;14.20;99.90;;;;;;3060047;19;20014;-73
2022/09/01 04:54:26;;;;;;;3.60;1.90;;;14.40;99.90;;;;;;3059267;19;20019;-72
2022/09/01 04:55:30;;;;;;;2.88;2.08;;;14.20;99.90;;;;;;3059089;19;20007;-73
2022/09/01 04:56:35;;;;;;;3.15;2.15;;;14.20;99.90;;;;;;3059068;19;20526;-73
2022/09/01 04:57:41;;;;;;;3.75;1.98;;;14.20;99.90;;;;;;3059449;19;20611;-73
2022/09/01 04:58:42;;;;;;;3.35;2.08;;;14.20;99.90;;;;;;3060564;19;20094;-72
2022/09/01 04:59:48;;;;;;;3.17;2.00;;;14.10;99.90;;;;;;3060613;19;20018;-72
2022/09/01 05:00:50;;;;;;;4.93;2.20;;;14.50;99.90;;;;;;3059223;19;20014;-73
2022/09/01 05:01:59;;;;;;;5.22;2.17;;;14.30;99.90;;;;;;3060774;19;20021;-72
2022/09/01 05:03:03;;;;;;;3.40;2.05;;;14.30;99.90;;;;;;3059678;19;20018;-73
2022/09/01 05:04:07;;;;;;;4.03;2.33;;;14.30;99.90;;;;;;3059213;19;20011;-73
2022/09/01 05:05:11;;;;;;;2.92;2.10;;;14.20;99.90;;;;;;3059093;19;20035;-73
2022/09/01 05:06:16;;;;;;;4.22;2.10;;;14.20;99.90;;;;;;3057765;19;20023;-73
2022/09/01 05:07:17;;;;;;;2.78;2.00;;;13.90;99.90;;;;;;3058399;19;20357;-72
2022/09/01 05:08:23;;;;;;;4.05;2.03;;;14.10;99.90;;;;;;3059164;19;20015;-73
2022/09/01 05:09:26;;;;;;;5.32;2.40;;;14.20;99.90;;;;;;3059534;19;20014;-73
2022/09/01 05:10:30;;;;;;;3.53;2.38;;;14.40;99.90;;;;;;3059087;19;20054;-73
2022/09/01 05:11:33;;;;;;;3.05;2.10;;;14.10;99.90;;;;;;3059110;19;20006;-73
2022/09/01 05:12:37;;;;;;;3.70;2.30;;;14.20;99.90;;;;;;3059780;19;20468;-73
2022/09/01 05:13:39;;;;;;;4.78;2.20;;;14.20;99.90;;;;;;3058972;19;20018;-73
2022/09/01 05:14:46;;;;;;;3.45;2.30;;;14.30;99.90;;;;;;3059158;19;19995;-73
2022/09/01 05:16:01;;;;;;;4.03;2.50;;;14.90;99.90;;;;;;3058998;19;20094;-73
2022/09/01 05:17:09;;;;;;;3.28;2.15;;;14.30;99.90;;;;;;3060345;19;20019;-73
2022/09/01 05:18:11;;;;;;;2.30;1.92;;;14.00;99.90;;;;;;3059079;19;20006;-73
2022/09/01 05:19:16;;;;;;;3.83;2.20;;;14.10;99.90;;;;;;3058748;19;20548;-73
2022/09/01 05:20:19;;;;;;;2.80;2.22;;;14.40;99.90;;;;;;3058134;19;20413;-73
2022/09/01 05:21:27;;;;;;;2.45;2.15;;;14.20;99.90;;;;;;3058277;19;20023;-73
2022/09/01 05:22:30;;;;;;;2.42;2.10;;;14.30;99.90;;;;;;3058906;19;20018;-73
2022/09/01 05:23:35;;;;;;;3.45;2.30;;;15.40;99.90;;;;;;3058886;19;20010;-73
2022/09/01 05:24:37;;;;;;;4.38;2.63;;;14.40;99.90;;;;;;3058806;19;20021;-72
2022/09/01 05:25:42;;;;;;;;;;;14.30;99.90;;;;;;3059102;19;20078;-72
2022/09/01 05:26:46;;;;;;;4.00;2.30;;;15.10;99.90;;;;;;3059172;19;19982;-73
2022/09/01 05:27:51;;;;;;;2.97;2.28;;;14.30;99.90;;;;;;3059144;19;20022;-73
2022/09/01 05:28:54;;;;;;;5.38;2.50;;;14.30;99.90;;;;;;3057656;19;20394;-73
2022/09/01 05:30:00;;;;;;;2.60;2.13;;;14.30;99.90;;;;;;3057442;19;20022;-73
2022/09/01 05:31:04;;;;;;;3.72;2.30;;;14.10;99.90;;;;;;3058913;19;20075;-73
2022/09/01 05:32:11;;;;;;;4.32;2.25;;;14.20;99.90;;;;;;3060532;19;20022;-73
2022/09/01 05:33:15;;;;;;;3.03;2.45;;;14.30;99.90;;;;;;3058556;19;20382;-73
2022/09/01 05:34:25;;;;;;;3.95;2.45;;;14.40;99.90;;;;;;3058474;19;20089;-73
2022/09/01 05:35:28;;;;;;;2.75;2.20;;;14.30;99.90;;;;;;3059097;19;20350;-72
2022/09/01 05:36:32;;;;;;;4.50;2.38;;;14.40;99.90;;;;;;3058651;19;20002;-73
2022/09/01 05:37:36;;;;;;;3.17;2.20;;;14.40;99.90;;;;;;3060179;19;20018;-73
2022/09/01 05:38:41;;;;;;;2.92;2.30;;;14.30;99.90;;;;;;3058832;19;20070;-73
2022/09/01 05:39:42;;;;;;;2.55;2.13;;;14.40;99.90;;;;;;3058589;19;20010;-73
2022/09/01 05:40:46;;;;;;;4.03;2.38;;;14.20;99.90;;;;;;3058842;19;20046;-73
2022/09/01 05:41:48;;;;;;;3.60;2.17;;;14.50;99.90;;;;;;3058122;19;20035;-73